Time;durP1;ratioP1;P1;durP2;ratioP2;P2;SDS_P1;SDS_P2;PMS_P1;PMS_P2;Temp;Humidity;BMP_temperature;BMP_pressure;BME280_temperature;BME280_humidity;BME280_pressure;Samples;Min_cycle;Max_cycle;Signal;HPM_P1;HPM_P2
2022/01/21 00:00:12;;;;;;;1.20;1.10;;;2.40;99.90;;;;;;5042306;28;20428;-79
2022/01/21 00:02:56;;;;;;;17.07;1.77;;;2.30;99.90;;;;;;5048994;28;20419;-79
2022/01/21 00:05:41;;;;;;;8.13;1.70;;;2.40;99.90;;;;;;5037975;28;20382;-79
2022/01/21 00:08:26;;;;;;;2.13;1.60;;;2.40;99.90;;;;;;5039626;28;20445;-79
2022/01/21 00:11:13;;;;;;;1.20;1.10;;;2.30;99.90;;;;;;5039046;28;20390;-79
2022/01/21 00:13:59;;;;;;;1.20;1.10;;;2.40;99.90;;;;;;5032218;28;20382;-79
2022/01/21 00:16:44;;;;;;;1.77;1.57;;;2.20;99.90;;;;;;5049072;28;20418;-79
2022/01/21 00:19:36;;;;;;;1.50;1.40;;;2.30;99.90;;;;;;5011072;28;20742;-79
2022/01/21 00:31:24;;;;;;;14.80;2.03;;;2.30;99.90;;;;;;5039167;28;20406;-80
2022/01/21 00:34:09;;;;;;;2.80;1.43;;;2.30;99.90;;;;;;5012994;28;20398;-79
2022/01/21 00:36:53;;;;;;;2.80;1.43;;;2.30;99.90;;;;;;5029142;28;20437;-79
2022/01/21 00:39:39;;;;;;;3.20;2.13;;;2.30;99.90;;;;;;5049159;28;20811;-79
2022/01/21 00:42:48;;;;;;;3.73;1.60;;;2.30;99.90;;;;;;5034837;28;20398;-79
2022/01/21 00:45:28;;;;;;;1.63;1.27;;;2.30;99.90;;;;;;5030570;28;20722;-79
2022/01/21 00:48:13;;;;;;;4.07;2.13;;;2.40;99.90;;;;;;5030896;28;20445;-79
2022/01/21 00:50:57;;;;;;;3.00;1.97;;;2.30;99.90;;;;;;5031281;28;20386;-79
2022/01/21 00:53:43;;;;;;;1.73;1.63;;;2.20;99.90;;;;;;5038532;28;20366;-79
2022/01/21 00:56:27;;;;;;;2.40;1.73;;;2.10;99.90;;;;;;5031267;28;20366;-79
2022/01/21 00:59:12;;;;;;;1.97;1.87;;;2.00;99.90;;;;;;5030456;28;20854;-79
2022/01/21 01:01:56;;;;;;;2.13;1.93;;;1.60;99.90;;;;;;5020638;28;20466;-79
2022/01/21 01:04:41;;;;;;;3.77;1.73;;;1.50;99.90;;;;;;5028455;28;20397;-79
2022/01/21 01:07:26;;;;;;;2.60;1.70;;;1.60;99.90;;;;;;4995608;28;20509;-79
2022/01/21 01:10:17;;;;;;;3.07;2.87;;;1.70;99.90;;;;;;5001699;28;20418;-79
2022/01/21 01:19:56;;;;;;;5.10;1.47;;;1.80;99.90;;;;;;5029767;28;20366;-79
2022/01/21 01:22:09;;;;;;;2.70;1.67;;;2.20;99.90;;;;;;5008555;28;20443;-79
2022/01/21 01:27:51;;;;;;;4.63;2.20;;;2.20;99.90;;;;;;5028301;28;20433;-79
2022/01/21 01:30:36;;;;;;;18.60;1.83;;;2.20;99.90;;;;;;5016600;28;20390;-80
2022/01/21 01:33:24;;;;;;;5.47;1.40;;;2.10;99.90;;;;;;5031698;28;20416;-80
2022/01/21 01:36:09;;;;;;;1.67;1.40;;;2.00;99.90;;;;;;5032417;28;20366;-80
2022/01/21 01:42:01;;;;;;;1.50;1.40;;;2.20;99.90;;;;;;5012650;28;20371;-80
2022/01/21 01:51:03;;;;;;;2.30;1.40;;;2.00;99.90;;;;;;5012923;28;20401;-80
2022/01/21 01:53:53;;;;;;;1.63;1.53;;;2.00;99.90;;;;;;5012643;28;20434;-79
2022/01/21 01:56:43;;;;;;;3.47;1.37;;;2.00;99.90;;;;;;5012612;28;20758;-80
2022/01/21 01:59:27;;;;;;;1.20;1.10;;;1.80;99.90;;;;;;5012401;28;20427;-80
2022/01/21 02:02:17;;;;;;;2.00;1.30;;;1.90;99.90;;;;;;5013120;28;20403;-79
2022/01/21 02:05:01;;;;;;;3.60;1.43;;;1.90;99.90;;;;;;5013156;28;20383;-80
2022/01/21 02:07:46;;;;;;;11.47;1.77;;;1.90;99.90;;;;;;5013368;28;20832;-79
2022/01/21 02:10:31;;;;;;;3.33;1.57;;;1.90;99.90;;;;;;4997619;28;20473;-80
2022/01/21 02:13:22;;;;;;;10.87;3.33;;;1.70;99.90;;;;;;5012942;28;20402;-80
2022/01/21 02:22:16;;;;;;;4.07;2.60;;;1.60;99.90;;;;;;5011551;28;20410;-80
2022/01/21 02:25:15;;;;;;;1.70;1.60;;;1.60;99.90;;;;;;5011655;28;20391;-79
2022/01/21 02:28:00;;;;;;;9.00;2.50;;;1.70;99.90;;;;;;5012607;28;20451;-79
2022/01/21 02:30:57;;;;;;;1.83;1.10;;;1.60;99.90;;;;;;4992778;28;20449;-80
2022/01/21 02:33:42;;;;;;;1.63;1.37;;;1.60;99.90;;;;;;4994535;28;20397;-80
2022/01/21 02:36:27;;;;;;;1.33;1.23;;;1.60;99.90;;;;;;5012623;28;20409;-80
2022/01/21 02:39:11;;;;;;;1.23;1.13;;;1.50;99.90;;;;;;5011890;28;20406;-80
2022/01/21 02:41:57;;;;;;;6.17;2.17;;;1.40;99.90;;;;;;4998114;28;20432;-80
2022/01/21 02:44:41;;;;;;;1.93;1.40;;;1.50;99.90;;;;;;5011824;28;20428;-80
2022/01/21 02:47:26;;;;;;;1.53;1.33;;;1.40;99.90;;;;;;4997566;28;20435;-80
2022/01/21 02:50:12;;;;;;;2.23;1.47;;;1.40;99.90;;;;;;5012717;28;20399;-80
2022/01/21 02:53:11;;;;;;;5.23;1.53;;;1.50;99.90;;;;;;5012332;28;20477;-80
2022/01/21 02:55:55;;;;;;;3.40;1.50;;;1.60;99.90;;;;;;5016113;28;20381;-79
2022/01/21 02:58:40;;;;;;;1.60;1.50;;;1.60;99.90;;;;;;5002678;28;20432;-79
2022/01/21 03:01:25;;;;;;;11.27;1.90;;;1.50;99.90;;;;;;5032270;28;20466;-79
2022/01/21 03:04:16;;;;;;;3.00;1.57;;;1.50;99.90;;;;;;5035055;28;20382;-79
2022/01/21 03:07:01;;;;;;;4.87;1.80;;;1.50;99.90;;;;;;5028491;28;20362;-80
2022/01/21 03:09:45;;;;;;;5.10;2.60;;;1.50;99.90;;;;;;5029352;28;20394;-80
2022/01/21 03:12:30;;;;;;;1.30;1.20;;;1.40;99.90;;;;;;5029744;28;20451;-80
2022/01/21 03:15:19;;;;;;;2.00;1.80;;;1.40;99.90;;;;;;5031054;28;20718;-80
2022/01/21 03:18:04;;;;;;;2.13;1.73;;;1.30;99.90;;;;;;5001324;28;20390;-80
2022/01/21 03:20:49;;;;;;;1.93;1.40;;;1.30;99.90;;;;;;5029560;28;20395;-80
2022/01/21 03:23:34;;;;;;;2.30;1.73;;;1.30;99.90;;;;;;5029989;28;20408;-80
2022/01/21 03:26:23;;;;;;;7.40;3.53;;;1.40;99.90;;;;;;5030665;28;20366;-79
2022/01/21 03:29:08;;;;;;;3.50;2.23;;;1.40;99.90;;;;;;5029978;28;20471;-80
2022/01/21 03:31:52;;;;;;;1.40;1.30;;;1.30;99.90;;;;;;5030122;28;20399;-79
2022/01/21 03:34:37;;;;;;;2.20;1.87;;;1.40;99.90;;;;;;5031219;28;20386;-80
2022/01/21 03:37:22;;;;;;;4.33;2.47;;;1.40;99.90;;;;;;5030602;28;20418;-79
2022/01/21 03:40:08;;;;;;;4.87;2.10;;;1.40;99.90;;;;;;5010942;28;20376;-80
2022/01/21 03:42:52;;;;;;;5.43;1.97;;;1.30;99.90;;;;;;5011427;28;20391;-80
2022/01/21 03:45:37;;;;;;;3.67;2.03;;;1.30;99.90;;;;;;5011374;28;20366;-80
2022/01/21 03:48:22;;;;;;;1.60;1.50;;;1.20;99.90;;;;;;5005964;28;20410;-80
2022/01/21 03:51:07;;;;;;;3.80;1.47;;;1.20;99.90;;;;;;5020372;28;20419;-80
2022/01/21 03:53:52;;;;;;;2.43;1.60;;;1.20;99.90;;;;;;5032746;28;20457;-80
2022/01/21 03:56:37;;;;;;;11.97;3.20;;;1.20;99.90;;;;;;5035945;28;20378;-79
2022/01/21 03:59:23;;;;;;;6.00;1.77;;;1.20;99.90;;;;;;5036711;28;20439;-79
2022/01/21 04:02:08;;;;;;;2.87;1.87;;;1.20;99.90;;;;;;5037043;28;20420;-80
2022/01/21 04:04:52;;;;;;;4.50;2.20;;;1.10;99.90;;;;;;5022599;28;20366;-79
2022/01/21 04:07:38;;;;;;;1.33;1.23;;;1.10;99.90;;;;;;5038173;28;20374;-79
2022/01/21 04:10:22;;;;;;;6.00;1.63;;;1.20;99.90;;;;;;5038143;28;20397;-79
2022/01/21 04:13:14;;;;;;;2.30;1.57;;;1.20;99.90;;;;;;5036195;28;20390;-79
2022/01/21 04:15:59;;;;;;;1.87;1.67;;;1.10;99.90;;;;;;5035535;28;20383;-80
2022/01/21 04:18:43;;;;;;;11.93;1.53;;;1.10;99.90;;;;;;5035099;28;20452;-79
2022/01/21 04:21:28;;;;;;;4.70;4.40;;;1.20;99.90;;;;;;5015336;28;20469;-80
2022/01/21 04:24:14;;;;;;;1.23;1.13;;;1.10;99.90;;;;;;5030609;28;20494;-79
2022/01/21 04:26:59;;;;;;;3.53;1.87;;;1.10;99.90;;;;;;5030317;28;20379;-79
2022/01/21 04:29:44;;;;;;;10.73;2.50;;;1.00;99.90;;;;;;5030757;28;20606;-79
2022/01/21 04:32:29;;;;;;;2.20;2.10;;;0.90;99.90;;;;;;5015812;28;20408;-79
2022/01/21 04:35:13;;;;;;;11.57;1.30;;;0.70;99.90;;;;;;5031122;28;20728;-79
2022/01/21 04:38:03;;;;;;;2.10;1.90;;;0.90;99.90;;;;;;5034345;28;20391;-79
2022/01/21 04:40:56;;;;;;;1.53;1.43;;;0.90;99.90;;;;;;5031665;28;20370;-79
2022/01/21 04:47:40;;;;;;;2.50;1.00;;;1.10;99.90;;;;;;5027148;28;20749;-79
2022/01/21 04:49:47;;;;;;;11.47;1.60;;;1.00;99.90;;;;;;5028879;28;20490;-79
2022/01/21 04:52:32;;;;;;;2.20;2.00;;;1.10;99.90;;;;;;5013876;28;20455;-79
2022/01/21 04:55:17;;;;;;;2.07;1.10;;;1.10;99.90;;;;;;5029621;28;20370;-79
2022/01/21 04:58:02;;;;;;;10.60;1.73;;;1.10;99.90;;;;;;5013464;28;20441;-79
2022/01/21 05:00:47;;;;;;;6.47;1.50;;;1.00;99.90;;;;;;5012633;28;20502;-79
2022/01/21 05:03:33;;;;;;;5.97;1.60;;;1.00;99.90;;;;;;5028118;28;20477;-79
2022/01/21 05:06:17;;;;;;;2.17;2.07;;;1.00;99.90;;;;;;4994579;28;20408;-79
2022/01/21 05:09:03;;;;;;;3.10;1.37;;;1.00;99.90;;;;;;5027912;28;20433;-79
2022/01/21 05:11:48;;;;;;;1.47;1.30;;;0.90;99.90;;;;;;5027682;28;20358;-79
2022/01/21 05:17:42;;;;;;;9.00;3.33;;;0.90;99.90;;;;;;5029365;28;20414;-79
2022/01/21 05:20:28;;;;;;;8.43;1.50;;;0.90;99.90;;;;;;5028263;28;20439;-79
2022/01/21 05:23:12;;;;;;;5.57;1.93;;;0.90;99.90;;;;;;5028254;28;20417;-79
2022/01/21 05:25:57;;;;;;;1.53;1.43;;;0.90;99.90;;;;;;5028391;28;20404;-79
2022/01/21 05:28:42;;;;;;;1.27;1.17;;;0.70;99.90;;;;;;5027898;28;20455;-79
2022/01/21 05:31:26;;;;;;;8.20;2.50;;;0.70;99.90;;;;;;5013089;28;20386;-79
2022/01/21 05:34:12;;;;;;;2.60;1.50;;;0.40;99.90;;;;;;5029265;28;20387;-79
2022/01/21 05:36:57;;;;;;;5.60;1.93;;;0.50;99.90;;;;;;5012626;28;20435;-79
2022/01/21 05:39:45;;;;;;;1.87;1.20;;;0.50;99.90;;;;;;5028768;28;20472;-79
2022/01/21 05:42:34;;;;;;;3.13;2.13;;;0.10;99.90;;;;;;5026513;28;20450;-79
2022/01/21 05:48:19;;;;;;;2.40;1.73;;;-0.70;99.90;;;;;;5026525;28;20433;-79
2022/01/21 05:51:03;;;;;;;1.40;1.30;;;-1.00;99.90;;;;;;5026466;28;20419;-79
2022/01/21 05:53:48;;;;;;;3.03;1.63;;;-1.10;99.90;;;;;;5006266;28;20397;-78
2022/01/21 05:56:33;;;;;;;1.83;1.53;;;-1.20;99.90;;;;;;4991819;28;20391;-79
2022/01/21 05:59:18;;;;;;;1.83;1.73;;;-1.00;99.90;;;;;;5013529;28;20386;-79
2022/01/21 06:02:02;;;;;;;2.37;2.17;;;-1.00;99.90;;;;;;5019600;28;20503;-79
2022/01/21 06:04:50;;;;;;;1.50;1.40;;;-1.10;99.90;;;;;;5004688;28;20801;-78
2022/01/21 06:07:35;;;;;;;1.37;1.27;;;-1.10;99.90;;;;;;5001483;28;20399;-78
2022/01/21 06:10:20;;;;;;;2.73;2.40;;;-1.40;99.90;;;;;;4995469;28;20978;-78
2022/01/21 06:13:04;;;;;;;10.53;1.90;;;-1.40;99.90;;;;;;4992053;28;20390;-78
2022/01/21 06:15:49;;;;;;;3.57;1.83;;;-1.40;99.90;;;;;;5000453;28;20447;-78
2022/01/21 06:18:33;;;;;;;6.10;2.43;;;-1.40;99.90;;;;;;4986814;28;20774;-78
2022/01/21 06:21:18;;;;;;;2.53;1.27;;;-1.40;99.90;;;;;;4984282;28;20461;-78
2022/01/21 06:24:03;;;;;;;7.77;1.50;;;-1.60;99.90;;;;;;4972137;28;20370;-78
2022/01/21 06:26:47;;;;;;;1.87;1.77;;;-1.80;99.90;;;;;;5004698;28;20390;-79
2022/01/21 06:29:33;;;;;;;2.43;1.73;;;-1.70;99.90;;;;;;5001520;28;20580;-78
2022/01/21 06:32:18;;;;;;;6.00;3.93;;;-2.00;99.90;;;;;;4999893;28;21097;-79
2022/01/21 06:35:03;;;;;;;2.20;2.10;;;-1.80;99.90;;;;;;4993775;28;20397;-78
2022/01/21 06:37:47;;;;;;;2.50;1.23;;;-2.00;99.90;;;;;;5017671;28;20387;-79
2022/01/21 06:40:32;;;;;;;2.70;2.10;;;-2.10;99.90;;;;;;5006006;28;20431;-79
2022/01/21 06:43:17;;;;;;;1.80;1.70;;;-2.00;99.90;;;;;;5005300;28;20423;-79
2022/01/21 06:46:01;;;;;;;5.53;2.60;;;-2.10;99.90;;;;;;5006313;28;20422;-78
2022/01/21 06:48:46;;;;;;;3.00;2.23;;;-2.20;99.90;;;;;;5021532;28;20463;-79
2022/01/21 06:51:30;;;;;;;1.90;1.73;;;-2.10;99.90;;;;;;5016124;28;20420;-79
2022/01/21 06:54:15;;;;;;;5.57;2.13;;;-2.10;99.90;;;;;;5019407;28;20416;-79
2022/01/21 06:57:00;;;;;;;4.50;2.27;;;-2.10;99.90;;;;;;5001956;28;20419;-79
2022/01/21 06:59:44;;;;;;;3.87;3.10;;;-2.10;99.90;;;;;;4986970;28;20416;-79
2022/01/21 07:02:29;;;;;;;3.53;3.33;;;-2.20;99.90;;;;;;5027666;28;20950;-79
2022/01/21 07:05:14;;;;;;;2.13;1.63;;;-2.30;99.90;;;;;;5018423;28;20903;-79
2022/01/21 07:08:00;;;;;;;1.80;1.70;;;-2.20;99.90;;;;;;5023787;28;20542;-79
2022/01/21 07:10:45;;;;;;;4.97;2.00;;;-2.20;99.90;;;;;;5027745;28;20404;-79
2022/01/21 07:13:30;;;;;;;1.63;1.53;;;-2.30;99.90;;;;;;5027337;28;20447;-79
2022/01/21 07:16:14;;;;;;;1.90;1.40;;;-2.30;99.90;;;;;;5014779;28;20475;-79
2022/01/21 07:18:59;;;;;;;3.03;2.43;;;-2.30;99.90;;;;;;5027724;28;20512;-78
2022/01/21 07:21:43;;;;;;;1.87;1.77;;;-2.20;99.90;;;;;;5019887;28;20503;-78
2022/01/21 07:24:28;;;;;;;2.13;1.73;;;-2.30;99.90;;;;;;5024363;28;20435;-78
2022/01/21 07:27:13;;;;;;;2.50;1.80;;;-2.10;99.90;;;;;;5017551;28;20382;-78
2022/01/21 07:29:58;;;;;;;1.70;1.60;;;-2.00;99.90;;;;;;5015299;28;20417;-79
2022/01/21 07:32:43;;;;;;;2.53;1.80;;;-2.20;99.90;;;;;;5018800;28;20857;-80
2022/01/21 07:35:28;;;;;;;5.27;1.63;;;-2.10;99.90;;;;;;4986246;28;20874;-79
2022/01/21 07:38:13;;;;;;;2.60;2.50;;;-2.10;99.90;;;;;;5001833;28;20935;-79
2022/01/21 07:40:58;;;;;;;3.70;2.50;;;-2.00;99.90;;;;;;4988475;28;20411;-79
2022/01/21 07:43:42;;;;;;;4.57;2.77;;;-2.10;99.90;;;;;;5002997;28;21344;-79
2022/01/21 07:46:27;;;;;;;3.80;3.03;;;-2.00;99.90;;;;;;4999922;28;20408;-79
2022/01/21 07:49:13;;;;;;;1.90;1.60;;;-2.10;99.90;;;;;;5015529;28;20613;-79
2022/01/21 07:51:58;;;;;;;5.07;2.57;;;-2.10;99.90;;;;;;5001622;28;20419;-79
2022/01/21 07:54:42;;;;;;;3.97;3.00;;;-2.10;99.90;;;;;;5022788;28;20874;-80
2022/01/21 07:57:27;;;;;;;1.67;1.47;;;-2.20;99.90;;;;;;5007220;28;20386;-80
2022/01/21 08:00:13;;;;;;;3.53;2.40;;;-2.10;99.90;;;;;;5022560;28;20438;-79
2022/01/21 08:02:57;;;;;;;1.47;1.37;;;-2.10;99.90;;;;;;5012900;28;20475;-79
2022/01/21 08:05:44;;;;;;;2.13;1.93;;;-2.00;99.90;;;;;;5004594;28;20902;-79
2022/01/21 08:08:30;;;;;;;7.93;2.30;;;-1.90;99.90;;;;;;5018153;28;20463;-79
2022/01/21 08:11:15;;;;;;;1.93;1.83;;;-1.80;99.90;;;;;;5020285;28;20419;-80
2022/01/21 08:14:00;;;;;;;2.50;2.17;;;-1.80;99.90;;;;;;5018613;28;20437;-79
2022/01/21 08:16:45;;;;;;;2.53;2.33;;;-1.70;99.90;;;;;;4998923;28;20435;-79
2022/01/21 08:19:29;;;;;;;2.47;2.27;;;-1.60;99.90;;;;;;4997596;28;20507;-79
2022/01/21 08:22:14;;;;;;;4.73;4.23;;;-1.40;99.90;;;;;;5003113;28;20560;-79
2022/01/21 08:24:59;;;;;;;2.50;2.30;;;-1.30;99.90;;;;;;5018313;28;20462;-79
2022/01/21 08:27:44;;;;;;;6.83;4.43;;;-1.10;99.90;;;;;;5003761;28;20829;-79
2022/01/21 08:30:28;;;;;;;9.83;4.30;;;-0.80;99.90;;;;;;5010610;28;20752;-79
2022/01/21 08:33:13;;;;;;;8.90;2.40;;;-0.30;99.90;;;;;;5009060;28;20463;-79
2022/01/21 08:35:58;;;;;;;7.50;3.80;;;-0.10;99.90;;;;;;5002256;28;20774;-79
2022/01/21 08:38:42;;;;;;;8.93;2.63;;;-0.10;99.90;;;;;;4989476;28;20431;-79
2022/01/21 08:41:27;;;;;;;2.43;2.10;;;-0.50;99.90;;;;;;5007626;28;20402;-79
2022/01/21 08:44:11;;;;;;;3.77;3.07;;;-0.70;99.90;;;;;;5004061;28;20458;-79
2022/01/21 08:46:56;;;;;;;3.87;2.70;;;-0.30;99.90;;;;;;5001404;28;20545;-79
2022/01/21 08:49:40;;;;;;;5.93;2.83;;;-0.80;99.90;;;;;;5019602;28;20525;-79
2022/01/21 08:52:27;;;;;;;3.67;3.30;;;-0.70;99.90;;;;;;5001077;28;20941;-79
2022/01/21 08:55:17;;;;;;;2.30;2.10;;;-0.50;99.90;;;;;;5017026;28;20745;-79
2022/01/21 08:58:02;;;;;;;8.10;6.50;;;-0.70;99.90;;;;;;5013994;28;20419;-79
2022/01/21 09:00:47;;;;;;;3.53;2.00;;;-0.60;99.90;;;;;;4999675;28;20450;-79
2022/01/21 09:03:32;;;;;;;11.67;4.80;;;-0.70;99.90;;;;;;5017545;28;20422;-79
2022/01/21 09:06:19;;;;;;;3.90;2.23;;;-0.50;99.90;;;;;;5016801;28;20466;-80
2022/01/21 09:09:04;;;;;;;4.27;3.97;;;-0.60;99.90;;;;;;5004640;28;20425;-79
2022/01/21 09:11:53;;;;;;;6.37;1.90;;;-0.50;99.90;;;;;;5003769;28;20402;-79
2022/01/21 09:14:37;;;;;;;1.80;1.67;;;-0.60;99.90;;;;;;5019972;28;20425;-79
2022/01/21 09:17:22;;;;;;;4.13;3.23;;;-0.60;99.90;;;;;;5022422;28;20378;-79
2022/01/21 09:20:08;;;;;;;8.23;3.40;;;-0.50;99.90;;;;;;5008190;28;20424;-81
2022/01/21 09:22:52;;;;;;;4.47;3.27;;;-0.50;99.90;;;;;;5012502;28;20442;-80
2022/01/21 09:25:37;;;;;;;8.00;3.90;;;-0.30;99.90;;;;;;5014374;28;20471;-81
2022/01/21 09:28:23;;;;;;;10.30;2.40;;;-0.30;99.90;;;;;;4997830;28;20463;-81
2022/01/21 09:31:08;;;;;;;4.43;3.10;;;-0.30;99.90;;;;;;5011603;28;20457;-80
2022/01/21 09:33:53;;;;;;;6.67;5.80;;;-0.20;99.90;;;;;;5013764;28;20445;-80
2022/01/21 09:36:37;;;;;;;3.50;2.40;;;0.20;99.90;;;;;;5003909;28;20974;-81
2022/01/21 09:39:23;;;;;;;5.70;3.70;;;0.50;99.90;;;;;;5009299;28;20877;-81
2022/01/21 09:42:07;;;;;;;3.67;3.40;;;0.70;99.90;;;;;;5016125;28;20540;-81
2022/01/21 09:44:52;;;;;;;6.50;4.10;;;0.70;99.90;;;;;;4998364;28;20758;-80
2022/01/21 09:47:46;;;;;;;3.83;2.53;;;0.60;99.90;;;;;;5015188;28;20386;-80
2022/01/21 09:50:32;;;;;;;5.43;3.60;;;0.70;99.90;;;;;;5011273;28;20518;-81
2022/01/21 09:53:25;;;;;;;5.40;3.67;;;1.10;99.90;;;;;;5000943;28;20416;-79
2022/01/21 09:56:09;;;;;;;7.83;5.60;;;1.10;99.90;;;;;;5013531;28;20412;-79
2022/01/21 09:58:59;;;;;;;4.53;4.23;;;1.30;99.90;;;;;;5019741;28;20548;-79
2022/01/21 10:01:49;;;;;;;6.93;3.30;;;1.40;99.90;;;;;;5017810;28;20945;-80
2022/01/21 10:04:37;;;;;;;5.50;4.53;;;1.60;99.90;;;;;;5019542;28;20431;-80
2022/01/21 10:07:22;;;;;;;6.90;3.70;;;2.00;99.90;;;;;;5000069;28;20389;-80
2022/01/21 10:10:08;;;;;;;3.53;3.20;;;1.70;99.90;;;;;;5010297;28;20491;-80
2022/01/21 10:13:01;;;;;;;3.20;2.40;;;2.20;99.90;;;;;;4995505;28;20406;-79
2022/01/21 10:15:48;;;;;;;2.33;2.13;;;2.60;99.90;;;;;;5013621;28;20517;-81
2022/01/21 10:18:33;;;;;;;4.30;3.00;;;2.60;99.90;;;;;;5009516;28;20382;-79
2022/01/21 10:21:18;;;;;;;3.07;2.77;;;2.70;99.90;;;;;;5019666;28;21134;-80
2022/01/21 10:24:10;;;;;;;5.43;3.07;;;3.00;99.90;;;;;;5013634;28;20445;-81
2022/01/21 10:26:56;;;;;;;6.87;3.30;;;2.90;99.90;;;;;;5013634;28;20923;-80
2022/01/21 10:29:41;;;;;;;3.77;3.10;;;2.90;99.90;;;;;;5016218;28;20498;-80
2022/01/21 10:32:42;;;;;;;4.27;3.13;;;3.10;99.90;;;;;;5015460;28;20374;-80
2022/01/21 10:35:32;;;;;;;6.00;3.77;;;3.10;99.90;;;;;;5012709;28;20427;-81
2022/01/21 10:38:22;;;;;;;14.50;7.40;;;3.10;99.90;;;;;;5015822;28;20401;-79
2022/01/21 10:41:10;;;;;;;6.07;4.00;;;3.20;99.90;;;;;;5013408;28;20419;-79
2022/01/21 10:44:09;;;;;;;4.13;1.93;;;3.30;99.90;;;;;;4973439;28;20488;-79
2022/01/21 10:47:08;;;;;;;7.43;3.20;;;3.30;99.90;;;;;;5029532;28;20416;-79
2022/01/21 10:49:59;;;;;;;8.33;3.70;;;3.00;99.90;;;;;;5026269;28;20481;-79
2022/01/21 10:52:50;;;;;;;9.83;3.10;;;3.10;99.90;;;;;;5005876;28;20434;-80
2022/01/21 10:55:38;;;;;;;2.50;1.93;;;3.10;99.90;;;;;;5010134;28;20435;-80
2022/01/21 10:58:24;;;;;;;14.57;3.97;;;3.20;99.90;;;;;;5007355;28;20404;-81
2022/01/21 11:01:17;;;;;;;6.40;3.10;;;3.20;99.90;;;;;;5013928;28;20846;-80
2022/01/21 11:04:11;;;;;;;10.10;3.30;;;3.40;99.90;;;;;;5012669;28;20402;-80
2022/01/21 11:06:58;;;;;;;2.80;2.60;;;3.50;99.90;;;;;;5011095;28;20908;-80
2022/01/21 11:09:42;;;;;;;5.57;3.93;;;3.60;99.90;;;;;;5017392;28;21028;-80
2022/01/21 11:12:33;;;;;;;4.37;2.27;;;3.50;99.90;;;;;;5014231;28;20537;-81
2022/01/21 11:15:17;;;;;;;4.40;3.07;;;3.30;99.90;;;;;;5009044;28;20441;-80
2022/01/21 11:18:02;;;;;;;2.30;2.10;;;3.60;99.90;;;;;;5010666;28;20502;-81
2022/01/21 11:20:49;;;;;;;3.37;3.10;;;3.90;99.90;;;;;;5012030;28;20413;-81
2022/01/21 11:23:36;;;;;;;3.07;2.77;;;3.70;99.90;;;;;;5009665;28;20408;-81
2022/01/21 11:26:20;;;;;;;8.97;2.33;;;3.90;99.90;;;;;;4999967;28;20411;-81
2022/01/21 11:29:07;;;;;;;8.80;3.20;;;4.00;99.90;;;;;;5008076;28;20422;-81
2022/01/21 11:31:51;;;;;;;7.33;3.80;;;3.90;99.90;;;;;;5013311;28;20377;-81
2022/01/21 11:34:36;;;;;;;7.23;3.63;;;3.80;99.90;;;;;;5002330;28;20423;-81
2022/01/21 11:37:22;;;;;;;4.07;3.67;;;3.70;99.90;;;;;;5020454;28;20398;-79
2022/01/21 11:40:07;;;;;;;3.00;2.70;;;3.70;99.90;;;;;;5025830;28;20390;-81
2022/01/21 11:42:51;;;;;;;7.93;3.33;;;3.80;99.90;;;;;;5028321;28;20407;-78
2022/01/21 11:48:50;;;;;;;4.57;3.70;;;3.90;99.90;;;;;;5010397;28;20532;-80
2022/01/21 11:51:38;;;;;;;7.27;3.33;;;4.00;99.90;;;;;;5012205;28;20928;-81
2022/01/21 11:54:24;;;;;;;4.90;3.20;;;3.90;99.90;;;;;;5019578;28;20386;-81
2022/01/21 11:57:11;;;;;;;2.27;2.10;;;4.00;99.90;;;;;;4998967;28;20427;-80
2022/01/21 12:00:06;;;;;;;6.90;2.63;;;4.00;99.90;;;;;;5015135;28;20421;-80
2022/01/21 12:02:51;;;;;;;3.40;3.07;;;4.00;99.90;;;;;;5010189;28;20390;-80
2022/01/21 12:05:36;;;;;;;10.70;4.30;;;4.10;99.90;;;;;;5010227;28;20408;-80
2022/01/21 12:08:51;;;;;;;12.20;3.13;;;4.00;99.90;;;;;;4995635;28;20454;-81
2022/01/21 12:11:38;;;;;;;4.70;3.30;;;3.70;99.90;;;;;;4975302;28;20451;-80
2022/01/21 12:14:47;;;;;;;6.60;2.60;;;3.70;99.90;;;;;;4999578;28;20402;-81
2022/01/21 12:17:45;;;;;;;8.90;3.70;;;3.90;99.90;;;;;;4994678;28;20379;-80
2022/01/21 12:20:32;;;;;;;19.03;5.70;;;3.90;99.90;;;;;;4990568;28;20458;-80
2022/01/21 12:23:21;;;;;;;8.73;4.30;;;3.60;99.90;;;;;;5013961;28;20494;-80
2022/01/21 12:26:16;;;;;;;3.63;2.80;;;3.60;99.90;;;;;;5011170;28;20932;-81
2022/01/21 12:29:22;;;;;;;5.37;3.80;;;3.80;99.90;;;;;;5009644;28;20792;-81
2022/01/21 12:32:13;;;;;;;8.50;3.40;;;3.90;99.90;;;;;;4997371;28;20383;-80
2022/01/21 12:35:15;;;;;;;22.70;4.03;;;3.90;99.90;;;;;;4998368;28;20423;-81
2022/01/21 12:41:32;;;;;;;3.40;2.77;;;3.80;99.90;;;;;;5002800;28;20418;-80
2022/01/21 12:44:31;;;;;;;15.03;4.60;;;3.80;99.90;;;;;;5001808;28;20430;-79
2022/01/21 12:47:26;;;;;;;5.07;2.97;;;3.70;99.90;;;;;;5011068;28;20423;-79
2022/01/21 12:50:28;;;;;;;5.77;5.07;;;3.60;99.90;;;;;;5012924;28;20435;-80
2022/01/21 12:53:24;;;;;;;11.83;4.87;;;3.60;99.90;;;;;;5005400;28;20419;-80
2022/01/21 12:56:08;;;;;;;12.50;5.70;;;3.50;99.90;;;;;;5031546;28;20386;-80
2022/01/21 12:58:53;;;;;;;6.10;4.40;;;3.50;99.90;;;;;;5016120;28;20415;-80
2022/01/21 13:01:38;;;;;;;5.73;4.60;;;3.50;99.90;;;;;;4995972;28;20959;-80
2022/01/21 13:04:44;;;;;;;6.37;4.17;;;3.40;99.90;;;;;;5015393;28;20439;-79
2022/01/21 13:07:58;;;;;;;4.73;4.30;;;3.40;99.90;;;;;;5008318;28;20401;-79
2022/01/21 13:10:42;;;;;;;4.00;3.40;;;3.50;99.90;;;;;;5000119;28;20382;-79
2022/01/21 13:13:47;;;;;;;4.80;3.80;;;3.50;99.90;;;;;;5011998;28;20425;-80
2022/01/21 13:16:32;;;;;;;5.17;4.03;;;3.50;99.90;;;;;;5015668;28;20473;-80
2022/01/21 13:19:17;;;;;;;7.93;4.80;;;3.50;99.90;;;;;;5016292;28;20397;-80
2022/01/21 13:22:01;;;;;;;5.27;3.60;;;3.50;99.90;;;;;;5013086;28;21031;-79
2022/01/21 13:24:57;;;;;;;5.43;3.67;;;3.50;99.90;;;;;;5013479;28;20394;-80
2022/01/21 13:27:47;;;;;;;7.07;4.47;;;3.50;99.90;;;;;;4995912;28;20729;-79
2022/01/21 13:30:36;;;;;;;5.67;4.47;;;3.50;99.90;;;;;;5014662;28;20806;-79
2022/01/21 13:33:21;;;;;;;5.90;4.40;;;3.40;99.90;;;;;;5010989;28;20449;-80
2022/01/21 13:36:05;;;;;;;6.77;4.20;;;3.30;99.90;;;;;;5013774;28;20559;-80
2022/01/21 13:39:08;;;;;;;8.60;5.90;;;3.40;99.90;;;;;;5013854;28;20461;-79
2022/01/21 13:42:03;;;;;;;8.03;5.47;;;3.40;99.90;;;;;;4984574;28;20481;-79
2022/01/21 13:44:54;;;;;;;8.53;5.00;;;3.50;99.90;;;;;;5016251;28;20410;-80
2022/01/21 13:47:45;;;;;;;11.87;6.23;;;3.50;99.90;;;;;;4985943;28;20408;-80
2022/01/21 13:50:30;;;;;;;4.90;4.43;;;3.60;99.90;;;;;;5002474;28;20423;-80
2022/01/21 13:53:15;;;;;;;5.30;4.17;;;3.60;99.90;;;;;;5000842;28;20402;-81
2022/01/21 13:56:02;;;;;;;7.10;6.10;;;3.60;99.90;;;;;;5014985;28;20406;-80
2022/01/21 13:58:48;;;;;;;5.67;5.00;;;3.70;99.90;;;;;;5014738;28;20402;-80
2022/01/21 14:01:32;;;;;;;7.53;4.13;;;3.60;99.90;;;;;;5002694;28;20438;-80
2022/01/21 14:04:17;;;;;;;10.00;4.50;;;3.60;99.90;;;;;;4998168;28;20467;-80
2022/01/21 14:07:03;;;;;;;4.73;4.03;;;3.60;99.90;;;;;;5009426;28;20772;-80
2022/01/21 14:09:47;;;;;;;5.53;3.90;;;3.60;99.90;;;;;;5018019;28;20446;-79
2022/01/21 14:12:36;;;;;;;7.43;4.30;;;3.60;99.90;;;;;;5018259;28;20432;-77
2022/01/21 14:15:21;;;;;;;6.30;4.63;;;3.60;99.90;;;;;;4970891;28;20515;-79
2022/01/21 14:18:06;;;;;;;5.07;3.97;;;3.50;99.90;;;;;;5014512;28;20891;-80
2022/01/21 14:21:01;;;;;;;10.63;4.10;;;3.40;99.90;;;;;;4999762;28;20759;-79
2022/01/21 14:23:47;;;;;;;6.47;4.23;;;3.30;99.90;;;;;;5013796;28;20390;-79
2022/01/21 14:26:44;;;;;;;4.90;4.50;;;3.30;99.90;;;;;;5001882;28;20390;-78
2022/01/21 14:29:32;;;;;;;5.80;4.90;;;3.40;99.90;;;;;;5013613;28;20438;-78
2022/01/21 14:32:30;;;;;;;21.27;8.60;;;3.50;99.90;;;;;;5013637;28;20398;-78
2022/01/21 14:35:19;;;;;;;7.13;3.93;;;3.50;99.90;;;;;;5000390;28;20429;-79
2022/01/21 14:38:07;;;;;;;6.60;4.13;;;3.60;99.90;;;;;;4986875;28;20406;-78
2022/01/21 14:40:54;;;;;;;8.53;4.83;;;3.60;99.90;;;;;;4998402;28;20422;-77
2022/01/21 14:43:50;;;;;;;8.50;3.70;;;3.60;99.90;;;;;;4994636;28;20500;-79
2022/01/21 14:46:36;;;;;;;10.67;6.97;;;3.60;99.90;;;;;;5016693;28;20403;-78
2022/01/21 14:49:29;;;;;;;7.40;5.20;;;3.60;99.90;;;;;;4999441;28;20462;-79
2022/01/21 14:55:22;;;;;;;8.20;4.30;;;3.70;99.90;;;;;;5011687;28;20446;-80
2022/01/21 14:58:17;;;;;;;7.90;5.77;;;3.70;99.90;;;;;;5024323;28;20475;-79
2022/01/21 15:01:05;;;;;;;6.63;5.00;;;3.60;99.90;;;;;;5022446;28;20592;-80
2022/01/21 15:03:50;;;;;;;4.27;3.00;;;3.70;99.90;;;;;;5027819;28;20438;-79
2022/01/21 15:06:35;;;;;;;6.10;4.43;;;3.70;99.90;;;;;;5012075;28;20398;-79
2022/01/21 15:09:38;;;;;;;8.87;3.33;;;3.70;99.90;;;;;;5020642;28;20486;-80
2022/01/21 15:15:44;;;;;;;9.23;4.50;;;3.70;99.90;;;;;;5030650;28;20479;-79
2022/01/21 15:18:29;;;;;;;12.00;6.97;;;3.60;99.90;;;;;;5013814;28;20451;-80
2022/01/21 15:21:16;;;;;;;3.70;3.30;;;3.60;99.90;;;;;;5028073;28;20413;-79
2022/01/21 15:24:03;;;;;;;5.90;4.13;;;3.60;99.90;;;;;;5016271;28;20405;-80
2022/01/21 15:26:47;;;;;;;7.63;3.70;;;3.60;99.90;;;;;;4996690;28;20462;-80
2022/01/21 15:29:32;;;;;;;4.13;3.73;;;3.60;99.90;;;;;;5010269;28;20489;-79
2022/01/21 15:32:16;;;;;;;4.80;3.27;;;3.70;99.90;;;;;;5009138;28;20490;-80